Terminal Aerodrome Forecast
Issued by NWS

Home | Current Version | Previous Version | Text Only | Print | Product List | Glossary On
Versions: 1 2 3 4 5 6 7 8 9 10 11 12 13 14 15 16 17 18 19 20 21 22 23 24 25 26 27
000
FTUS42 KGSP 180321 AAB
TAFAND
TAF AMD
KAND 180321Z 1803/1824 00000KT 5SM -SHRA BR SCT004 OVC090
      TEMPO 1803/1806 1 1/2SM SHRA BR BKN004 OVC090
     FM180600 00000KT 4SM BR OVC003
     FM181400 05005KT P6SM BKN007
     FM181600 05006KT P6SM BKN015
     FM181900 06006KT P6SM BKN025=

USA.gov is the U.S. government's official web portal to all federal, state and local government web resources and services.